sensor_id;sensor_type;location;lat;lon;timestamp;P1;durP1;ratioP1;P2;durP2;ratioP2
69765;SDS011;57039;48.014;21.384;2023-12-28T00:00:27;53.05;;;23.12;;
69765;SDS011;57039;48.014;21.384;2023-12-28T00:01:30;52.40;;;22.17;;
69765;SDS011;57039;48.014;21.384;2023-12-28T00:02:33;53.47;;;23.25;;
69765;SDS011;57039;48.014;21.384;2023-12-28T00:03:36;63.70;;;26.48;;
69765;SDS011;57039;48.014;21.384;2023-12-28T00:04:40;71.28;;;31.05;;
69765;SDS011;57039;48.014;21.384;2023-12-28T00:05:42;74.82;;;32.03;;
69765;SDS011;57039;48.014;21.384;2023-12-28T00:06:46;79.35;;;32.75;;
69765;SDS011;57039;48.014;21.384;2023-12-28T00:07:49;67.23;;;29.60;;
69765;SDS011;57039;48.014;21.384;2023-12-28T00:08:59;51.13;;;24.77;;
69765;SDS011;57039;48.014;21.384;2023-12-28T00:10:13;48.72;;;21.73;;
69765;SDS011;57039;48.014;21.384;2023-12-28T00:11:16;40.83;;;19.12;;
69765;SDS011;57039;48.014;21.384;2023-12-28T00:12:19;39.67;;;18.15;;
69765;SDS011;57039;48.014;21.384;2023-12-28T00:13:25;38.10;;;18.85;;
69765;SDS011;57039;48.014;21.384;2023-12-28T00:14:28;41.13;;;19.90;;
69765;SDS011;57039;48.014;21.384;2023-12-28T00:15:30;41.70;;;20.12;;
69765;SDS011;57039;48.014;21.384;2023-12-28T00:16:33;52.70;;;23.70;;
69765;SDS011;57039;48.014;21.384;2023-12-28T00:17:39;57.17;;;27.20;;
69765;SDS011;57039;48.014;21.384;2023-12-28T00:18:42;56.87;;;27.40;;
69765;SDS011;57039;48.014;21.384;2023-12-28T00:19:45;49.42;;;25.70;;
69765;SDS011;57039;48.014;21.384;2023-12-28T00:20:49;48.80;;;24.98;;
69765;SDS011;57039;48.014;21.384;2023-12-28T00:21:52;47.80;;;23.58;;
69765;SDS011;57039;48.014;21.384;2023-12-28T00:22:55;38.97;;;20.33;;
69765;SDS011;57039;48.014;21.384;2023-12-28T00:23:58;35.38;;;19.48;;
69765;SDS011;57039;48.014;21.384;2023-12-28T00:25:01;35.90;;;18.90;;
69765;SDS011;57039;48.014;21.384;2023-12-28T00:26:04;34.67;;;18.55;;
69765;SDS011;57039;48.014;21.384;2023-12-28T00:27:07;29.85;;;17.12;;
69765;SDS011;57039;48.014;21.384;2023-12-28T00:28:10;26.62;;;15.60;;
69765;SDS011;57039;48.014;21.384;2023-12-28T00:29:13;24.00;;;12.80;;
69765;SDS011;57039;48.014;21.384;2023-12-28T00:30:16;22.95;;;12.52;;
69765;SDS011;57039;48.014;21.384;2023-12-28T00:31:20;16.77;;;10.35;;
69765;SDS011;57039;48.014;21.384;2023-12-28T00:32:23;19.42;;;10.77;;
69765;SDS011;57039;48.014;21.384;2023-12-28T00:33:26;20.92;;;11.73;;
69765;SDS011;57039;48.014;21.384;2023-12-28T00:34:30;25.42;;;13.70;;
69765;SDS011;57039;48.014;21.384;2023-12-28T00:35:33;29.33;;;16.17;;
69765;SDS011;57039;48.014;21.384;2023-12-28T00:36:36;31.52;;;18.62;;
69765;SDS011;57039;48.014;21.384;2023-12-28T00:37:39;34.15;;;19.62;;
69765;SDS011;57039;48.014;21.384;2023-12-28T00:38:43;36.13;;;21.67;;
69765;SDS011;57039;48.014;21.384;2023-12-28T00:39:46;38.47;;;22.07;;
69765;SDS011;57039;48.014;21.384;2023-12-28T00:40:50;32.65;;;20.55;;
69765;SDS011;57039;48.014;21.384;2023-12-28T00:41:52;38.58;;;21.65;;
69765;SDS011;57039;48.014;21.384;2023-12-28T00:42:55;35.85;;;21.52;;
69765;SDS011;57039;48.014;21.384;2023-12-28T00:43:59;36.78;;;21.50;;
69765;SDS011;57039;48.014;21.384;2023-12-28T00:45:03;36.45;;;22.23;;
69765;SDS011;57039;48.014;21.384;2023-12-28T00:46:06;37.22;;;21.77;;
69765;SDS011;57039;48.014;21.384;2023-12-28T00:47:09;33.80;;;21.40;;
69765;SDS011;57039;48.014;21.384;2023-12-28T00:48:13;31.45;;;20.42;;
69765;SDS011;57039;48.014;21.384;2023-12-28T00:49:16;31.80;;;18.27;;
69765;SDS011;57039;48.014;21.384;2023-12-28T00:50:19;27.07;;;17.03;;
69765;SDS011;57039;48.014;21.384;2023-12-28T00:51:24;25.50;;;15.57;;
69765;SDS011;57039;48.014;21.384;2023-12-28T00:52:27;20.73;;;12.48;;
69765;SDS011;57039;48.014;21.384;2023-12-28T00:53:29;20.20;;;12.75;;
69765;SDS011;57039;48.014;21.384;2023-12-28T00:54:33;21.20;;;12.80;;
69765;SDS011;57039;48.014;21.384;2023-12-28T00:55:37;20.50;;;12.68;;
69765;SDS011;57039;48.014;21.384;2023-12-28T00:56:39;19.83;;;12.80;;
69765;SDS011;57039;48.014;21.384;2023-12-28T00:57:42;23.05;;;14.98;;
69765;SDS011;57039;48.014;21.384;2023-12-28T00:58:45;22.08;;;15.13;;
69765;SDS011;57039;48.014;21.384;2023-12-28T00:59:48;22.20;;;14.15;;
69765;SDS011;57039;48.014;21.384;2023-12-28T01:00:51;18.27;;;12.43;;
69765;SDS011;57039;48.014;21.384;2023-12-28T01:01:58;20.08;;;12.27;;
69765;SDS011;57039;48.014;21.384;2023-12-28T01:03:01;17.10;;;10.88;;
69765;SDS011;57039;48.014;21.384;2023-12-28T01:04:05;14.38;;;9.63;;
69765;SDS011;57039;48.014;21.384;2023-12-28T01:05:09;16.77;;;9.95;;
69765;SDS011;57039;48.014;21.384;2023-12-28T01:06:12;17.98;;;10.25;;
69765;SDS011;57039;48.014;21.384;2023-12-28T01:07:15;19.52;;;10.93;;
69765;SDS011;57039;48.014;21.384;2023-12-28T01:08:18;17.65;;;12.13;;
69765;SDS011;57039;48.014;21.384;2023-12-28T01:09:21;18.27;;;12.52;;
69765;SDS011;57039;48.014;21.384;2023-12-28T01:10:24;17.83;;;12.00;;
69765;SDS011;57039;48.014;21.384;2023-12-28T01:11:27;19.83;;;12.93;;
69765;SDS011;57039;48.014;21.384;2023-12-28T01:12:30;17.50;;;12.50;;
69765;SDS011;57039;48.014;21.384;2023-12-28T01:13:34;17.70;;;11.68;;
69765;SDS011;57039;48.014;21.384;2023-12-28T01:14:41;17.45;;;10.70;;
69765;SDS011;57039;48.014;21.384;2023-12-28T01:15:45;16.52;;;10.88;;
69765;SDS011;57039;48.014;21.384;2023-12-28T01:16:48;13.10;;;9.07;;
69765;SDS011;57039;48.014;21.384;2023-12-28T01:17:51;15.25;;;9.85;;
69765;SDS011;57039;48.014;21.384;2023-12-28T01:18:53;14.18;;;8.65;;
69765;SDS011;57039;48.014;21.384;2023-12-28T01:19:56;14.85;;;8.82;;
69765;SDS011;57039;48.014;21.384;2023-12-28T01:21:00;14.65;;;9.25;;
69765;SDS011;57039;48.014;21.384;2023-12-28T01:22:03;13.63;;;8.23;;
69765;SDS011;57039;48.014;21.384;2023-12-28T01:23:06;12.25;;;8.50;;
69765;SDS011;57039;48.014;21.384;2023-12-28T01:24:09;13.90;;;8.00;;
69765;SDS011;57039;48.014;21.384;2023-12-28T01:25:12;12.50;;;8.05;;
69765;SDS011;57039;48.014;21.384;2023-12-28T01:26:16;13.27;;;7.90;;
69765;SDS011;57039;48.014;21.384;2023-12-28T01:27:19;13.15;;;7.90;;
69765;SDS011;57039;48.014;21.384;2023-12-28T01:28:22;12.95;;;8.20;;
69765;SDS011;57039;48.014;21.384;2023-12-28T01:29:25;10.95;;;6.90;;
69765;SDS011;57039;48.014;21.384;2023-12-28T01:30:27;14.65;;;7.60;;
69765;SDS011;57039;48.014;21.384;2023-12-28T01:31:31;13.43;;;7.93;;
69765;SDS011;57039;48.014;21.384;2023-12-28T01:32:34;11.17;;;6.70;;
69765;SDS011;57039;48.014;21.384;2023-12-28T01:33:37;12.68;;;7.75;;
69765;SDS011;57039;48.014;21.384;2023-12-28T01:34:40;12.63;;;7.70;;
69765;SDS011;57039;48.014;21.384;2023-12-28T01:35:44;13.85;;;8.35;;
69765;SDS011;57039;48.014;21.384;2023-12-28T01:36:48;14.07;;;7.87;;
69765;SDS011;57039;48.014;21.384;2023-12-28T01:37:51;13.43;;;8.40;;
69765;SDS011;57039;48.014;21.384;2023-12-28T01:38:54;11.18;;;7.20;;
69765;SDS011;57039;48.014;21.384;2023-12-28T01:39:57;13.73;;;8.38;;
69765;SDS011;57039;48.014;21.384;2023-12-28T01:41:00;14.98;;;8.60;;
69765;SDS011;57039;48.014;21.384;2023-12-28T01:42:03;13.32;;;8.38;;
69765;SDS011;57039;48.014;21.384;2023-12-28T01:43:07;14.17;;;7.67;;
69765;SDS011;57039;48.014;21.384;2023-12-28T01:44:09;14.43;;;8.02;;
69765;SDS011;57039;48.014;21.384;2023-12-28T01:45:12;15.65;;;8.07;;
69765;SDS011;57039;48.014;21.384;2023-12-28T01:46:18;14.20;;;8.15;;
69765;SDS011;57039;48.014;21.384;2023-12-28T01:47:26;13.07;;;8.63;;
69765;SDS011;57039;48.014;21.384;2023-12-28T01:48:31;15.48;;;8.85;;
69765;SDS011;57039;48.014;21.384;2023-12-28T01:49:35;15.35;;;8.55;;
69765;SDS011;57039;48.014;21.384;2023-12-28T01:50:39;14.10;;;8.80;;
69765;SDS011;57039;48.014;21.384;2023-12-28T01:51:42;14.05;;;8.75;;
69765;SDS011;57039;48.014;21.384;2023-12-28T01:52:46;16.08;;;9.18;;
69765;SDS011;57039;48.014;21.384;2023-12-28T01:53:50;13.77;;;8.40;;
69765;SDS011;57039;48.014;21.384;2023-12-28T01:54:54;15.68;;;9.50;;
69765;SDS011;57039;48.014;21.384;2023-12-28T01:55:58;16.42;;;9.55;;
69765;SDS011;57039;48.014;21.384;2023-12-28T01:57:02;17.65;;;9.18;;
69765;SDS011;57039;48.014;21.384;2023-12-28T01:58:06;15.05;;;9.13;;
69765;SDS011;57039;48.014;21.384;2023-12-28T01:59:09;14.20;;;9.15;;
69765;SDS011;57039;48.014;21.384;2023-12-28T02:00:12;16.80;;;9.18;;
69765;SDS011;57039;48.014;21.384;2023-12-28T02:01:16;15.75;;;8.80;;
69765;SDS011;57039;48.014;21.384;2023-12-28T02:02:20;14.87;;;9.52;;
69765;SDS011;57039;48.014;21.384;2023-12-28T02:03:25;18.60;;;9.63;;
69765;SDS011;57039;48.014;21.384;2023-12-28T02:04:28;16.53;;;10.10;;
69765;SDS011;57039;48.014;21.384;2023-12-28T02:05:32;14.85;;;9.30;;
69765;SDS011;57039;48.014;21.384;2023-12-28T02:06:35;15.65;;;9.23;;
69765;SDS011;57039;48.014;21.384;2023-12-28T02:07:39;13.95;;;8.80;;
69765;SDS011;57039;48.014;21.384;2023-12-28T02:08:42;18.40;;;10.05;;
69765;SDS011;57039;48.014;21.384;2023-12-28T02:09:45;16.30;;;9.68;;
69765;SDS011;57039;48.014;21.384;2023-12-28T02:10:48;17.23;;;9.93;;
69765;SDS011;57039;48.014;21.384;2023-12-28T02:11:52;16.83;;;9.77;;
69765;SDS011;57039;48.014;21.384;2023-12-28T02:12:56;18.50;;;11.12;;
69765;SDS011;57039;48.014;21.384;2023-12-28T02:13:59;18.60;;;11.05;;
69765;SDS011;57039;48.014;21.384;2023-12-28T02:15:02;18.00;;;10.13;;
69765;SDS011;57039;48.014;21.384;2023-12-28T02:16:29;18.75;;;10.30;;
69765;SDS011;57039;48.014;21.384;2023-12-28T02:17:40;18.08;;;10.05;;
69765;SDS011;57039;48.014;21.384;2023-12-28T02:18:50;18.20;;;10.25;;
69765;SDS011;57039;48.014;21.384;2023-12-28T02:19:57;15.27;;;9.75;;
69765;SDS011;57039;48.014;21.384;2023-12-28T02:21:00;17.83;;;10.80;;
69765;SDS011;57039;48.014;21.384;2023-12-28T02:22:05;18.20;;;10.85;;
69765;SDS011;57039;48.014;21.384;2023-12-28T02:23:10;18.25;;;10.93;;
69765;SDS011;57039;48.014;21.384;2023-12-28T02:24:13;17.80;;;10.73;;
69765;SDS011;57039;48.014;21.384;2023-12-28T02:25:16;19.37;;;11.98;;
69765;SDS011;57039;48.014;21.384;2023-12-28T02:26:19;16.90;;;10.87;;
69765;SDS011;57039;48.014;21.384;2023-12-28T02:27:22;19.80;;;12.00;;
69765;SDS011;57039;48.014;21.384;2023-12-28T02:28:25;18.75;;;11.75;;
69765;SDS011;57039;48.014;21.384;2023-12-28T02:29:28;19.35;;;11.60;;
69765;SDS011;57039;48.014;21.384;2023-12-28T02:30:31;19.65;;;12.23;;
69765;SDS011;57039;48.014;21.384;2023-12-28T02:31:42;20.05;;;11.43;;
69765;SDS011;57039;48.014;21.384;2023-12-28T02:34:16;19.52;;;11.48;;
69765;SDS011;57039;48.014;21.384;2023-12-28T02:35:33;19.40;;;11.80;;
69765;SDS011;57039;48.014;21.384;2023-12-28T02:36:36;19.35;;;12.52;;
69765;SDS011;57039;48.014;21.384;2023-12-28T02:37:44;22.20;;;11.77;;
69765;SDS011;57039;48.014;21.384;2023-12-28T02:38:53;18.48;;;11.20;;
69765;SDS011;57039;48.014;21.384;2023-12-28T02:40:01;20.27;;;11.52;;
69765;SDS011;57039;48.014;21.384;2023-12-28T02:41:05;22.30;;;12.55;;
69765;SDS011;57039;48.014;21.384;2023-12-28T02:42:09;22.05;;;13.02;;
69765;SDS011;57039;48.014;21.384;2023-12-28T02:43:13;21.60;;;12.55;;
69765;SDS011;57039;48.014;21.384;2023-12-28T02:44:16;22.08;;;11.82;;
69765;SDS011;57039;48.014;21.384;2023-12-28T02:45:19;20.20;;;13.02;;
69765;SDS011;57039;48.014;21.384;2023-12-28T02:46:22;18.90;;;11.82;;
69765;SDS011;57039;48.014;21.384;2023-12-28T02:47:25;21.23;;;12.02;;
69765;SDS011;57039;48.014;21.384;2023-12-28T02:48:29;20.00;;;11.93;;
69765;SDS011;57039;48.014;21.384;2023-12-28T02:49:32;20.67;;;12.95;;
69765;SDS011;57039;48.014;21.384;2023-12-28T02:50:36;20.95;;;12.10;;
69765;SDS011;57039;48.014;21.384;2023-12-28T02:51:39;21.67;;;12.63;;
69765;SDS011;57039;48.014;21.384;2023-12-28T02:52:42;19.25;;;12.35;;
69765;SDS011;57039;48.014;21.384;2023-12-28T02:53:45;19.85;;;12.00;;
69765;SDS011;57039;48.014;21.384;2023-12-28T02:54:48;22.48;;;12.20;;
69765;SDS011;57039;48.014;21.384;2023-12-28T02:55:51;22.33;;;12.65;;
69765;SDS011;57039;48.014;21.384;2023-12-28T02:56:54;20.23;;;12.23;;
69765;SDS011;57039;48.014;21.384;2023-12-28T02:57:58;19.73;;;11.82;;
69765;SDS011;57039;48.014;21.384;2023-12-28T02:59:04;21.63;;;12.40;;
69765;SDS011;57039;48.014;21.384;2023-12-28T03:00:08;19.70;;;12.70;;
69765;SDS011;57039;48.014;21.384;2023-12-28T03:01:11;22.70;;;13.02;;
69765;SDS011;57039;48.014;21.384;2023-12-28T03:02:14;22.87;;;13.70;;
69765;SDS011;57039;48.014;21.384;2023-12-28T03:03:17;22.83;;;13.85;;
69765;SDS011;57039;48.014;21.384;2023-12-28T03:04:20;23.80;;;13.15;;
69765;SDS011;57039;48.014;21.384;2023-12-28T03:05:23;20.67;;;13.10;;
69765;SDS011;57039;48.014;21.384;2023-12-28T03:06:26;23.02;;;13.80;;
69765;SDS011;57039;48.014;21.384;2023-12-28T03:07:30;20.83;;;13.45;;
69765;SDS011;57039;48.014;21.384;2023-12-28T03:08:32;20.75;;;12.70;;
69765;SDS011;57039;48.014;21.384;2023-12-28T03:09:35;21.47;;;13.03;;
69765;SDS011;57039;48.014;21.384;2023-12-28T03:10:40;20.70;;;12.90;;
69765;SDS011;57039;48.014;21.384;2023-12-28T03:11:43;23.00;;;13.40;;
69765;SDS011;57039;48.014;21.384;2023-12-28T03:12:46;22.33;;;12.93;;
69765;SDS011;57039;48.014;21.384;2023-12-28T03:13:49;22.10;;;12.45;;
69765;SDS011;57039;48.014;21.384;2023-12-28T03:14:52;23.17;;;13.18;;
69765;SDS011;57039;48.014;21.384;2023-12-28T03:15:57;22.45;;;14.45;;
69765;SDS011;57039;48.014;21.384;2023-12-28T03:17:03;21.75;;;13.00;;
69765;SDS011;57039;48.014;21.384;2023-12-28T03:18:07;23.48;;;13.88;;
69765;SDS011;57039;48.014;21.384;2023-12-28T03:19:11;20.90;;;13.15;;
69765;SDS011;57039;48.014;21.384;2023-12-28T03:20:14;22.70;;;13.10;;
69765;SDS011;57039;48.014;21.384;2023-12-28T03:21:18;22.02;;;13.35;;
69765;SDS011;57039;48.014;21.384;2023-12-28T03:22:21;22.52;;;12.88;;
69765;SDS011;57039;48.014;21.384;2023-12-28T03:23:24;19.25;;;12.63;;
69765;SDS011;57039;48.014;21.384;2023-12-28T03:24:28;23.70;;;13.48;;
69765;SDS011;57039;48.014;21.384;2023-12-28T03:25:32;23.38;;;13.38;;
69765;SDS011;57039;48.014;21.384;2023-12-28T03:26:38;19.80;;;11.65;;
69765;SDS011;57039;48.014;21.384;2023-12-28T03:27:41;19.42;;;12.60;;
69765;SDS011;57039;48.014;21.384;2023-12-28T03:28:45;21.37;;;12.20;;
69765;SDS011;57039;48.014;21.384;2023-12-28T03:29:48;18.08;;;11.63;;
69765;SDS011;57039;48.014;21.384;2023-12-28T03:30:51;19.67;;;12.03;;
69765;SDS011;57039;48.014;21.384;2023-12-28T03:31:54;19.95;;;12.02;;
69765;SDS011;57039;48.014;21.384;2023-12-28T03:32:57;19.40;;;11.65;;
69765;SDS011;57039;48.014;21.384;2023-12-28T03:34:00;20.05;;;11.98;;
69765;SDS011;57039;48.014;21.384;2023-12-28T03:35:03;20.80;;;11.80;;
69765;SDS011;57039;48.014;21.384;2023-12-28T03:36:08;18.35;;;12.25;;
69765;SDS011;57039;48.014;21.384;2023-12-28T03:37:20;19.27;;;11.63;;
69765;SDS011;57039;48.014;21.384;2023-12-28T03:38:24;18.27;;;11.00;;
69765;SDS011;57039;48.014;21.384;2023-12-28T03:39:28;20.40;;;11.70;;
69765;SDS011;57039;48.014;21.384;2023-12-28T03:40:31;19.08;;;11.70;;
69765;SDS011;57039;48.014;21.384;2023-12-28T03:41:34;20.97;;;11.77;;
69765;SDS011;57039;48.014;21.384;2023-12-28T03:42:36;20.85;;;12.63;;
69765;SDS011;57039;48.014;21.384;2023-12-28T03:43:41;19.23;;;11.35;;
69765;SDS011;57039;48.014;21.384;2023-12-28T03:44:44;21.42;;;11.45;;
69765;SDS011;57039;48.014;21.384;2023-12-28T03:45:47;19.95;;;12.10;;
69765;SDS011;57039;48.014;21.384;2023-12-28T03:46:50;18.48;;;11.98;;
69765;SDS011;57039;48.014;21.384;2023-12-28T03:47:53;18.27;;;11.48;;
69765;SDS011;57039;48.014;21.384;2023-12-28T03:48:57;21.62;;;12.63;;
69765;SDS011;57039;48.014;21.384;2023-12-28T03:50:00;19.67;;;11.90;;
69765;SDS011;57039;48.014;21.384;2023-12-28T03:51:04;21.67;;;12.07;;
69765;SDS011;57039;48.014;21.384;2023-12-28T03:52:07;21.33;;;11.90;;
69765;SDS011;57039;48.014;21.384;2023-12-28T03:53:10;17.05;;;11.05;;
69765;SDS011;57039;48.014;21.384;2023-12-28T03:54:15;17.23;;;11.30;;
69765;SDS011;57039;48.014;21.384;2023-12-28T03:55:19;19.17;;;11.57;;
69765;SDS011;57039;48.014;21.384;2023-12-28T03:56:23;21.02;;;12.37;;
69765;SDS011;57039;48.014;21.384;2023-12-28T03:57:28;18.83;;;12.15;;
69765;SDS011;57039;48.014;21.384;2023-12-28T03:58:30;18.05;;;10.82;;
69765;SDS011;57039;48.014;21.384;2023-12-28T03:59:33;20.20;;;11.70;;
69765;SDS011;57039;48.014;21.384;2023-12-28T04:00:37;16.17;;;10.85;;
69765;SDS011;57039;48.014;21.384;2023-12-28T04:01:40;20.73;;;11.73;;
69765;SDS011;57039;48.014;21.384;2023-12-28T04:02:43;19.23;;;11.73;;
69765;SDS011;57039;48.014;21.384;2023-12-28T04:03:47;18.60;;;11.98;;
69765;SDS011;57039;48.014;21.384;2023-12-28T04:04:50;20.35;;;11.35;;
69765;SDS011;57039;48.014;21.384;2023-12-28T04:05:54;21.17;;;12.15;;
69765;SDS011;57039;48.014;21.384;2023-12-28T04:06:57;18.48;;;11.38;;
69765;SDS011;57039;48.014;21.384;2023-12-28T04:08:00;18.33;;;11.68;;
69765;SDS011;57039;48.014;21.384;2023-12-28T04:09:03;19.35;;;11.77;;
69765;SDS011;57039;48.014;21.384;2023-12-28T04:10:07;18.20;;;11.88;;
69765;SDS011;57039;48.014;21.384;2023-12-28T04:11:10;20.25;;;11.68;;
69765;SDS011;57039;48.014;21.384;2023-12-28T04:12:13;20.25;;;11.30;;
69765;SDS011;57039;48.014;21.384;2023-12-28T04:13:16;19.33;;;11.23;;
69765;SDS011;57039;48.014;21.384;2023-12-28T04:14:19;17.65;;;10.55;;
69765;SDS011;57039;48.014;21.384;2023-12-28T04:15:21;16.67;;;10.77;;
69765;SDS011;57039;48.014;21.384;2023-12-28T04:16:24;18.30;;;10.90;;
69765;SDS011;57039;48.014;21.384;2023-12-28T04:17:27;17.62;;;11.12;;
69765;SDS011;57039;48.014;21.384;2023-12-28T04:18:31;17.65;;;11.25;;
69765;SDS011;57039;48.014;21.384;2023-12-28T04:19:35;17.62;;;10.73;;
69765;SDS011;57039;48.014;21.384;2023-12-28T04:20:38;18.27;;;10.48;;
69765;SDS011;57039;48.014;21.384;2023-12-28T04:21:44;18.65;;;11.00;;
69765;SDS011;57039;48.014;21.384;2023-12-28T04:22:48;17.55;;;11.30;;
69765;SDS011;57039;48.014;21.384;2023-12-28T04:23:51;19.83;;;11.03;;
69765;SDS011;57039;48.014;21.384;2023-12-28T04:24:54;18.30;;;11.00;;
69765;SDS011;57039;48.014;21.384;2023-12-28T04:25:58;20.50;;;11.02;;
69765;SDS011;57039;48.014;21.384;2023-12-28T04:27:01;17.40;;;10.52;;
69765;SDS011;57039;48.014;21.384;2023-12-28T04:28:04;18.00;;;10.60;;
69765;SDS011;57039;48.014;21.384;2023-12-28T04:29:07;17.05;;;10.60;;
69765;SDS011;57039;48.014;21.384;2023-12-28T04:30:13;16.23;;;10.40;;
69765;SDS011;57039;48.014;21.384;2023-12-28T04:31:17;15.50;;;10.02;;
69765;SDS011;57039;48.014;21.384;2023-12-28T04:32:20;16.67;;;10.25;;
69765;SDS011;57039;48.014;21.384;2023-12-28T04:33:23;17.60;;;10.95;;
69765;SDS011;57039;48.014;21.384;2023-12-28T04:34:26;17.80;;;10.13;;
69765;SDS011;57039;48.014;21.384;2023-12-28T04:35:30;17.60;;;10.27;;
69765;SDS011;57039;48.014;21.384;2023-12-28T04:36:32;16.20;;;9.57;;
69765;SDS011;57039;48.014;21.384;2023-12-28T04:37:42;14.48;;;9.52;;
69765;SDS011;57039;48.014;21.384;2023-12-28T04:38:47;18.15;;;10.00;;
69765;SDS011;57039;48.014;21.384;2023-12-28T04:39:50;16.62;;;9.93;;
69765;SDS011;57039;48.014;21.384;2023-12-28T04:40:53;17.83;;;10.00;;
69765;SDS011;57039;48.014;21.384;2023-12-28T04:41:56;16.37;;;9.43;;
69765;SDS011;57039;48.014;21.384;2023-12-28T04:42:59;17.83;;;10.00;;
69765;SDS011;57039;48.014;21.384;2023-12-28T04:44:02;15.13;;;9.38;;
69765;SDS011;57039;48.014;21.384;2023-12-28T04:45:05;15.63;;;9.13;;
69765;SDS011;57039;48.014;21.384;2023-12-28T04:46:09;16.75;;;9.65;;
69765;SDS011;57039;48.014;21.384;2023-12-28T04:47:12;15.40;;;9.73;;
69765;SDS011;57039;48.014;21.384;2023-12-28T04:48:15;16.25;;;9.80;;
69765;SDS011;57039;48.014;21.384;2023-12-28T04:49:23;16.80;;;10.52;;
69765;SDS011;57039;48.014;21.384;2023-12-28T04:50:26;17.17;;;10.32;;
69765;SDS011;57039;48.014;21.384;2023-12-28T04:51:29;17.92;;;10.38;;
69765;SDS011;57039;48.014;21.384;2023-12-28T04:52:31;16.35;;;10.07;;
69765;SDS011;57039;48.014;21.384;2023-12-28T04:53:35;17.85;;;10.50;;
69765;SDS011;57039;48.014;21.384;2023-12-28T04:54:41;20.02;;;10.25;;
69765;SDS011;57039;48.014;21.384;2023-12-28T04:55:44;15.53;;;9.93;;
69765;SDS011;57039;48.014;21.384;2023-12-28T04:56:47;18.20;;;10.90;;
69765;SDS011;57039;48.014;21.384;2023-12-28T04:57:50;17.77;;;10.15;;
69765;SDS011;57039;48.014;21.384;2023-12-28T04:58:53;16.62;;;10.50;;
69765;SDS011;57039;48.014;21.384;2023-12-28T04:59:56;16.60;;;10.23;;
69765;SDS011;57039;48.014;21.384;2023-12-28T05:01:00;16.15;;;10.05;;
69765;SDS011;57039;48.014;21.384;2023-12-28T05:02:04;16.10;;;9.52;;
69765;SDS011;57039;48.014;21.384;2023-12-28T05:03:07;19.40;;;10.52;;
69765;SDS011;57039;48.014;21.384;2023-12-28T05:04:10;17.00;;;11.18;;
69765;SDS011;57039;48.014;21.384;2023-12-28T05:05:19;16.23;;;10.52;;
69765;SDS011;57039;48.014;21.384;2023-12-28T05:06:23;14.73;;;9.80;;
69765;SDS011;57039;48.014;21.384;2023-12-28T05:07:25;15.07;;;10.05;;
69765;SDS011;57039;48.014;21.384;2023-12-28T05:08:28;15.85;;;9.48;;
69765;SDS011;57039;48.014;21.384;2023-12-28T05:09:31;16.08;;;9.52;;
69765;SDS011;57039;48.014;21.384;2023-12-28T05:10:36;15.45;;;9.45;;
69765;SDS011;57039;48.014;21.384;2023-12-28T05:11:41;17.85;;;10.27;;
69765;SDS011;57039;48.014;21.384;2023-12-28T05:12:44;16.67;;;9.90;;
69765;SDS011;57039;48.014;21.384;2023-12-28T05:13:47;16.00;;;9.65;;
69765;SDS011;57039;48.014;21.384;2023-12-28T05:14:50;16.75;;;9.77;;
69765;SDS011;57039;48.014;21.384;2023-12-28T05:15:54;16.48;;;9.60;;
69765;SDS011;57039;48.014;21.384;2023-12-28T05:16:57;16.37;;;9.50;;
69765;SDS011;57039;48.014;21.384;2023-12-28T05:18:00;17.20;;;9.73;;
69765;SDS011;57039;48.014;21.384;2023-12-28T05:19:03;18.83;;;10.02;;
69765;SDS011;57039;48.014;21.384;2023-12-28T05:20:06;20.52;;;10.73;;
69765;SDS011;57039;48.014;21.384;2023-12-28T05:21:18;17.98;;;10.07;;
69765;SDS011;57039;48.014;21.384;2023-12-28T05:22:22;18.92;;;11.45;;
69765;SDS011;57039;48.014;21.384;2023-12-28T05:23:25;18.30;;;10.90;;
69765;SDS011;57039;48.014;21.384;2023-12-28T05:24:27;17.87;;;10.75;;
69765;SDS011;57039;48.014;21.384;2023-12-28T05:25:30;19.77;;;11.80;;
69765;SDS011;57039;48.014;21.384;2023-12-28T05:26:34;18.50;;;10.82;;
69765;SDS011;57039;48.014;21.384;2023-12-28T05:27:37;17.63;;;10.90;;
69765;SDS011;57039;48.014;21.384;2023-12-28T05:28:40;16.17;;;10.10;;
69765;SDS011;57039;48.014;21.384;2023-12-28T05:29:43;18.27;;;9.98;;
69765;SDS011;57039;48.014;21.384;2023-12-28T05:30:46;17.12;;;10.65;;
69765;SDS011;57039;48.014;21.384;2023-12-28T05:31:53;17.02;;;10.70;;
69765;SDS011;57039;48.014;21.384;2023-12-28T05:32:56;16.90;;;9.95;;
69765;SDS011;57039;48.014;21.384;2023-12-28T05:34:01;17.87;;;10.63;;
69765;SDS011;57039;48.014;21.384;2023-12-28T05:35:05;18.40;;;11.12;;
69765;SDS011;57039;48.014;21.384;2023-12-28T05:36:11;17.67;;;11.20;;
69765;SDS011;57039;48.014;21.384;2023-12-28T05:37:14;17.58;;;10.68;;
69765;SDS011;57039;48.014;21.384;2023-12-28T05:38:17;16.47;;;10.20;;
69765;SDS011;57039;48.014;21.384;2023-12-28T05:39:21;16.17;;;10.07;;
69765;SDS011;57039;48.014;21.384;2023-12-28T05:40:27;16.12;;;10.27;;
69765;SDS011;57039;48.014;21.384;2023-12-28T05:41:32;16.08;;;10.25;;
69765;SDS011;57039;48.014;21.384;2023-12-28T05:42:35;17.58;;;11.02;;
69765;SDS011;57039;48.014;21.384;2023-12-28T05:43:38;15.15;;;10.00;;
69765;SDS011;57039;48.014;21.384;2023-12-28T05:44:54;16.95;;;9.32;;
69765;SDS011;57039;48.014;21.384;2023-12-28T05:45:57;16.52;;;10.25;;
69765;SDS011;57039;48.014;21.384;2023-12-28T05:47:00;17.75;;;10.63;;
69765;SDS011;57039;48.014;21.384;2023-12-28T05:48:03;17.73;;;9.55;;
69765;SDS011;57039;48.014;21.384;2023-12-28T05:49:09;16.73;;;10.33;;
69765;SDS011;57039;48.014;21.384;2023-12-28T05:50:13;15.60;;;9.73;;
69765;SDS011;57039;48.014;21.384;2023-12-28T05:51:16;17.27;;;10.30;;
69765;SDS011;57039;48.014;21.384;2023-12-28T05:52:23;16.42;;;10.75;;
69765;SDS011;57039;48.014;21.384;2023-12-28T05:53:26;16.87;;;10.15;;
69765;SDS011;57039;48.014;21.384;2023-12-28T05:54:30;21.25;;;13.02;;
69765;SDS011;57039;48.014;21.384;2023-12-28T05:55:35;28.98;;;17.95;;
69765;SDS011;57039;48.014;21.384;2023-12-28T05:56:38;34.60;;;19.55;;
69765;SDS011;57039;48.014;21.384;2023-12-28T05:57:41;40.35;;;21.50;;
69765;SDS011;57039;48.014;21.384;2023-12-28T05:58:48;46.53;;;25.60;;
69765;SDS011;57039;48.014;21.384;2023-12-28T05:59:53;51.10;;;26.93;;
69765;SDS011;57039;48.014;21.384;2023-12-28T06:01:02;50.65;;;29.17;;
69765;SDS011;57039;48.014;21.384;2023-12-28T06:02:07;50.38;;;28.15;;
69765;SDS011;57039;48.014;21.384;2023-12-28T06:03:15;52.10;;;28.33;;
69765;SDS011;57039;48.014;21.384;2023-12-28T06:04:18;47.92;;;26.67;;
69765;SDS011;57039;48.014;21.384;2023-12-28T06:05:21;44.13;;;24.83;;
69765;SDS011;57039;48.014;21.384;2023-12-28T06:06:24;39.58;;;20.83;;
69765;SDS011;57039;48.014;21.384;2023-12-28T06:07:31;32.58;;;19.40;;
69765;SDS011;57039;48.014;21.384;2023-12-28T06:08:40;28.67;;;18.10;;
69765;SDS011;57039;48.014;21.384;2023-12-28T06:09:43;27.37;;;16.52;;
69765;SDS011;57039;48.014;21.384;2023-12-28T06:10:47;28.13;;;16.60;;